Time;durP1;ratioP1;P1;durP2;ratioP2;P2;SDS_P1;SDS_P2;PMS_P1;PMS_P2;Temp;Humidity;BMP_temperature;BMP_pressure;BME280_temperature;BME280_humidity;BME280_pressure;Samples;Min_cycle;Max_cycle;Signal;HPM_P1;HPM_P2
2022/09/26 00:00:42;;;;;;;9.70;4.70;;;;;;;9.60;100.00;100812.16;5139970;27;20027;-95
2022/09/26 00:03:28;;;;;;;9.07;5.10;;;;;;;9.58;100.00;100808.78;5139856;27;20044;-95
2022/09/26 00:06:06;;;;;;;7.90;4.65;;;;;;;9.58;100.00;100804.22;5124299;27;20068;-95
2022/09/26 00:08:53;;;;;;;8.10;4.30;;;;;;;9.57;100.00;100805.25;5140480;27;20027;-95
2022/09/26 00:11:28;;;;;;;7.10;4.85;;;;;;;9.59;100.00;100796.94;5140566;27;20099;-95
2022/09/26 00:14:05;;;;;;;8.00;4.78;;;;;;;9.57;100.00;100794.44;5140073;27;20470;-95
2022/09/26 00:16:31;;;;;;;9.10;4.77;;;;;;;9.59;100.00;100786.09;5140570;27;20099;-95
2022/09/26 00:18:58;;;;;;;10.10;4.70;;;;;;;9.60;100.00;100785.88;5140352;27;20022;-95
2022/09/26 00:21:29;;;;;;;9.38;5.13;;;;;;;9.60;100.00;100775.03;5139620;27;20130;-96
2022/09/26 00:24:01;;;;;;;10.05;4.55;;;;;;;9.61;100.00;100779.44;5140569;27;20379;-94
2022/09/26 00:26:37;;;;;;;8.48;4.80;;;;;;;9.62;100.00;100770.25;5140953;27;20451;-94
2022/09/26 00:29:17;;;;;;;9.20;4.97;;;;;;;9.65;100.00;100763.56;5140068;27;20075;-95
2022/09/26 00:31:49;;;;;;;8.40;4.88;;;;;;;9.67;100.00;100764.22;5123261;27;20035;-94
2022/09/26 00:34:26;;;;;;;8.55;4.55;;;;;;;9.68;100.00;100765.03;5139445;27;20023;-95
2022/09/26 00:36:52;;;;;;;9.75;5.20;;;;;;;9.70;100.00;100754.81;5139857;27;20031;-95
2022/09/26 00:39:38;;;;;;;;;;;;;;;;;;;;;
2022/09/26 00:42:13;;;;;;;7.32;4.75;;;;;;;9.76;100.00;100751.28;5141697;27;20033;-95
2022/09/26 00:44:58;;;;;;;7.35;4.82;;;;;;;9.80;100.00;100747.06;5139944;27;20527;-95
2022/09/26 00:47:58;;;;;;;7.13;4.82;;;;;;;9.89;100.00;100755.81;5139868;27;20045;-95
2022/09/26 00:50:41;;;;;;;10.43;5.20;;;;;;;9.87;100.00;100739.75;5134656;27;20049;-95
2022/09/26 00:53:17;;;;;;;8.05;5.20;;;;;;;9.94;100.00;100740.56;5140357;27;20033;-94
2022/09/26 00:55:56;;;;;;;7.22;4.35;;;;;;;9.96;100.00;100734.94;5138872;27;20033;-94
2022/09/26 00:58:37;;;;;;;9.75;4.88;;;;;;;9.98;100.00;100728.25;5136279;27;20070;-93
2022/09/26 01:01:30;;;;;;;7.22;4.60;;;;;;;10.06;100.00;100726.34;5136069;27;20042;-94
2022/09/26 01:04:03;;;;;;;11.80;4.43;;;;;;;10.09;100.00;100717.78;5135846;27;20031;-93
2022/09/26 01:06:38;;;;;;;11.57;4.20;;;;;;;10.10;100.00;100708.63;5135707;27;20110;-94
2022/09/26 01:09:14;;;;;;;8.80;4.50;;;;;;;10.15;100.00;100706.09;5136565;27;20447;-94
2022/09/26 01:11:46;;;;;;;4.88;3.72;;;;;;;10.16;100.00;100694.19;5136016;27;20058;-94
2022/09/26 01:14:21;;;;;;;7.82;4.13;;;;;;;10.20;100.00;100698.13;5135367;27;20038;-94
2022/09/26 01:16:49;;;;;;;8.63;3.80;;;;;;;10.23;100.00;100692.28;5135725;27;20119;-94
2022/09/26 01:19:30;;;;;;;9.27;3.83;;;;;;;10.26;100.00;100688.28;5135280;27;20126;-95
2022/09/26 01:22:31;;;;;;;;;;;;;;;;;;;;;
2022/09/26 01:25:03;;;;;;;12.85;3.95;;;;;;;10.31;99.60;100678.47;5137559;27;20022;-95
2022/09/26 01:28:21;;;;;;;7.63;3.58;;;;;;;10.34;99.12;100669.91;5135036;27;20038;-94
2022/09/26 01:31:06;;;;;;;9.77;3.93;;;;;;;10.33;99.31;100664.69;5117958;27;20030;-94
2022/09/26 01:33:50;;;;;;;8.23;3.58;;;;;;;10.39;98.52;100663.00;5118298;27;20020;-94
2022/09/26 01:36:31;;;;;;;9.25;3.40;;;;;;;10.40;98.36;100651.13;5135630;27;20035;-95
2022/09/26 01:39:14;;;;;;;5.35;3.60;;;;;;;10.39;98.35;100642.13;5135923;27;20035;-95
2022/09/26 01:42:11;;;;;;;6.75;3.17;;;;;;;10.38;98.08;100640.50;5135383;27;20034;-94
2022/09/26 01:45:12;;;;;;;4.70;3.00;;;;;;;10.37;97.76;100629.88;5135142;27;20031;-94
2022/09/26 01:47:49;;;;;;;7.45;3.00;;;;;;;10.34;97.79;100626.53;5130804;27;20039;-94
2022/09/26 01:50:43;;;;;;;4.93;2.92;;;;;;;10.36;97.58;100626.31;5134905;27;20042;-94
2022/09/26 01:53:33;;;;;;;7.10;2.85;;;;;;;10.35;97.41;100616.53;5134927;27;20042;-94
2022/09/26 01:56:25;;;;;;;6.05;3.50;;;;;;;10.33;96.96;100607.72;5134665;27;20128;-94
2022/09/26 01:59:01;;;;;;;9.77;3.00;;;;;;;10.31;96.59;100602.53;5123419;27;20501;-94
2022/09/26 02:01:47;;;;;;;8.55;3.25;;;;;;;10.31;96.31;100596.28;5134926;27;20023;-95
2022/09/26 02:04:22;;;;;;;4.68;2.45;;;;;;;10.28;95.70;100589.41;5135104;27;20027;-95
2022/09/26 02:07:30;;;;;;;8.48;2.75;;;;;;;10.27;95.94;100584.22;5134887;27;20031;-95
2022/09/26 02:10:34;;;;;;;;;;;;;;;;;;;;;
2022/09/26 02:13:22;;;;;;;3.77;2.50;;;;;;;10.23;94.95;100573.00;5107897;27;20039;-95
2022/09/26 02:16:10;;;;;;;4.68;2.35;;;;;;;10.29;94.94;100565.81;5134193;27;20031;-94
2022/09/26 02:19:03;;;;;;;6.03;2.33;;;;;;;10.23;94.88;100572.13;5118434;27;20035;-95
2022/09/26 02:21:43;;;;;;;7.85;2.75;;;;;;;10.17;94.86;100558.41;5117543;28;20114;-95
2022/09/26 02:24:19;;;;;;;5.15;2.60;;;;;;;10.18;94.63;100557.34;5119356;27;20532;-95
2022/09/26 02:26:54;;;;;;;8.73;2.70;;;;;;;10.15;94.91;100541.53;5118138;28;20031;-94
2022/09/26 02:29:41;;;;;;;7.10;2.65;;;;;;;10.17;94.01;100541.31;5100889;28;20023;-95
2022/09/26 02:32:14;;;;;;;7.35;2.83;;;;;;;10.16;94.61;100540.47;5134295;28;20026;-95
2022/09/26 02:34:57;;;;;;;5.00;2.33;;;;;;;10.17;94.13;100536.72;5133593;28;20035;-94
2022/09/26 02:37:24;;;;;;;9.20;2.65;;;;;;;10.17;94.18;100538.59;5135083;28;20043;-94
2022/09/26 02:40:03;;;;;;;8.17;3.30;;;;;;;10.16;94.35;100526.13;5116963;27;20463;-94
2022/09/26 02:42:36;;;;;;;5.05;2.50;;;;;;;10.14;94.71;100530.91;5121919;27;20031;-95
2022/09/26 02:45:26;;;;;;;8.50;2.65;;;;;;;10.18;94.18;100532.94;5138781;27;20470;-95
2022/09/26 02:48:38;;;;;;;5.93;2.35;;;;;;;10.17;93.87;100536.72;5138755;27;20088;-95
2022/09/26 02:51:53;;;;;;;4.60;2.28;;;;;;;10.16;93.92;100526.94;5121378;27;20029;-94
2022/09/26 02:54:48;;;;;;;;;;;;;;;;;;;;;
2022/09/26 02:58:04;;;;;;;5.80;2.00;;;;;;;10.18;93.06;100507.72;5140162;27;20031;-94
2022/09/26 03:01:09;;;;;;;4.03;2.10;;;;;;;10.21;92.81;100498.34;5138466;27;20031;-94
2022/09/26 03:03:51;;;;;;;4.25;2.00;;;;;;;10.19;92.31;100502.09;5121513;27;20027;-94
2022/09/26 03:06:41;;;;;;;5.78;2.13;;;;;;;10.20;92.30;100494.78;5103701;27;20039;-94
2022/09/26 03:09:22;;;;;;;4.50;1.83;;;;;;;10.25;91.86;100497.66;5120699;27;20114;-94
2022/09/26 03:12:08;;;;;;;7.30;2.20;;;;;;;10.24;91.43;100484.31;5106265;27;20087;-94
2022/09/26 03:14:42;;;;;;;5.43;2.22;;;;;;;10.17;91.69;100479.81;5121209;27;20031;-94
2022/09/26 03:17:27;;;;;;;;;;;;;;;;;;;;;
2022/09/26 03:20:35;;;;;;;;;;;;;;;;;;;;;
2022/09/26 03:23:02;;;;;;;8.00;2.10;;;;;;;9.99;91.78;100464.31;5139314;27;20041;-94
2022/09/26 03:25:41;;;;;;;4.68;2.38;;;;;;;9.99;91.91;100458.91;5103533;27;20039;-95
2022/09/26 03:28:09;;;;;;;7.85;2.10;;;;;;;10.02;91.22;100449.47;5121104;27;20042;-94
2022/09/26 03:30:34;;;;;;;5.82;2.00;;;;;;;10.04;91.79;100452.81;5120461;27;20058;-95
2022/09/26 03:33:06;;;;;;;5.63;2.10;;;;;;;10.06;91.63;100447.97;5120466;27;20058;-94
2022/09/26 03:35:46;;;;;;;;;;;;;;;;;;;;;
2022/09/26 03:38:18;;;;;;;6.38;1.77;;;;;;;10.17;90.19;100441.84;5106911;27;20049;-95
2022/09/26 03:40:45;;;;;;;4.05;1.70;;;;;;;10.16;90.68;100425.81;5120114;27;20442;-95
2022/09/26 03:43:18;;;;;;;4.33;2.10;;;;;;;10.04;92.15;100423.00;5119637;27;20127;-94
2022/09/26 03:45:56;;;;;;;4.47;2.05;;;;;;;9.95;92.50;100414.31;5120418;27;20042;-94
2022/09/26 03:48:30;;;;;;;8.48;2.08;;;;;;;9.78;94.62;100422.16;5095770;27;20043;-95
2022/09/26 03:51:30;;;;;;;5.30;1.83;;;;;;;9.69;95.12;100415.34;5120505;27;20035;-95
2022/09/26 03:54:06;;;;;;;14.65;2.10;;;;;;;9.55;96.62;100419.19;5119925;27;20024;-95
2022/09/26 03:56:53;;;;;;;3.10;1.90;;;;;;;9.48;97.32;100420.06;5103642;27;20092;-94
2022/09/26 03:59:24;;;;;;;10.30;2.10;;;;;;;9.41;99.14;100402.22;5103529;27;20073;-95
2022/09/26 04:01:59;;;;;;;7.22;2.50;;;;;;;9.36;99.85;100396.63;5119131;27;20129;-95
2022/09/26 04:04:52;;;;;;;6.72;2.40;;;;;;;9.30;100.00;100392.91;5119825;27;20070;-96
2022/09/26 04:07:23;;;;;;;5.20;2.33;;;;;;;9.28;100.00;100387.69;5120095;27;20144;-96
2022/09/26 04:09:57;;;;;;;4.77;1.80;;;;;;;9.19;100.00;100391.72;5138250;27;20031;-96
2022/09/26 04:12:23;;;;;;;6.35;2.22;;;;;;;9.18;100.00;100375.69;5087117;27;20019;-95
2022/09/26 04:14:56;;;;;;;6.40;2.40;;;;;;;9.10;100.00;100366.78;5119516;27;20076;-95
2022/09/26 04:17:28;;;;;;;4.67;2.40;;;;;;;9.07;100.00;100364.53;5103983;27;20031;-95
2022/09/26 04:20:01;;;;;;;7.20;2.20;;;;;;;9.03;100.00;100357.88;5118345;27;20479;-96
2022/09/26 04:22:48;;;;;;;9.02;2.42;;;;;;;9.03;100.00;100352.47;5119927;27;20037;-95
2022/09/26 04:25:30;;;;;;;9.73;2.40;;;;;;;9.04;100.00;100350.59;5103369;27;20375;-95
2022/09/26 04:27:58;;;;;;;8.07;2.28;;;;;;;9.03;100.00;100346.22;5102515;27;20118;-94
2022/09/26 04:30:35;;;;;;;6.43;2.10;;;;;;;9.01;100.00;100332.09;5119436;27;20456;-93
2022/09/26 04:33:01;;;;;;;9.23;3.10;;;;;;;9.01;100.00;100335.63;5103309;27;20023;-94
2022/09/26 04:35:39;;;;;;;7.73;2.30;;;;;;;9.01;100.00;100343.75;5101910;27;20027;-93
2022/09/26 04:38:08;;;;;;;7.33;2.43;;;;;;;9.08;100.00;100340.97;5104014;27;20336;-94
2022/09/26 04:40:39;;;;;;;6.65;2.22;;;;;;;9.06;100.00;100324.16;5119117;27;20035;-93
2022/09/26 04:43:16;;;;;;;4.90;2.30;;;;;;;9.10;100.00;100309.13;5119967;27;20023;-94
2022/09/26 04:45:42;;;;;;;8.77;2.40;;;;;;;9.11;100.00;100303.50;5118649;27;20039;-94
2022/09/26 04:48:09;;;;;;;8.33;2.07;;;;;;;9.19;100.00;100290.75;5118566;27;20027;-93
2022/09/26 04:50:37;;;;;;;7.95;1.92;;;;;;;9.20;100.00;100276.19;5119200;27;20054;-94
2022/09/26 04:53:12;;;;;;;5.22;2.10;;;;;;;9.21;100.00;100283.22;5119013;27;20538;-93
2022/09/26 04:55:44;;;;;;;7.25;2.00;;;;;;;9.23;100.00;100279.25;5119024;27;20458;-94
2022/09/26 04:58:13;;;;;;;4.60;2.30;;;;;;;9.13;100.00;100270.81;5124214;27;20137;-93
2022/09/26 05:00:48;;;;;;;8.40;2.10;;;;;;;9.10;100.00;100263.13;5139195;27;20071;-93
2022/09/26 05:03:18;;;;;;;7.78;2.55;;;;;;;9.04;100.00;100255.91;5134408;27;20501;-94
2022/09/26 05:06:00;;;;;;;6.45;2.17;;;;;;;9.06;100.00;100261.91;5138720;27;20026;-94
2022/09/26 05:08:29;;;;;;;7.10;2.28;;;;;;;9.01;100.00;100246.34;5139166;27;20474;-94
2022/09/26 05:11:01;;;;;;;6.20;1.80;;;;;;;9.07;100.00;100250.84;5139123;27;20119;-94
2022/09/26 05:13:35;;;;;;;5.63;2.28;;;;;;;9.02;100.00;100239.03;5139276;27;20035;-95
2022/09/26 05:16:04;;;;;;;5.60;2.58;;;;;;;8.98;100.00;100224.31;5133374;27;20034;-95
2022/09/26 05:18:38;;;;;;;5.38;2.40;;;;;;;8.92;100.00;100216.00;5139321;27;20359;-95
2022/09/26 05:21:05;;;;;;;6.30;2.28;;;;;;;8.87;100.00;100218.56;5122699;27;20118;-95
2022/09/26 05:26:44;;;;;;;8.35;2.60;;;;;;;8.84;100.00;100216.25;5157714;27;20037;-94
2022/09/26 05:29:20;;;;;;;8.95;2.85;;;;;;;8.84;100.00;100208.16;5138904;27;20114;-93
2022/09/26 05:31:49;;;;;;;8.02;2.53;;;;;;;8.82;100.00;100202.16;5138848;27;20023;-93
2022/09/26 05:34:23;;;;;;;8.07;2.72;;;;;;;8.85;100.00;100209.00;5121122;27;20045;-94
2022/09/26 05:36:52;;;;;;;9.93;2.90;;;;;;;8.91;100.00;100205.41;5138289;27;20071;-90
2022/09/26 05:42:09;;;;;;;6.72;2.60;;;;;;;8.88;100.00;100203.97;5156953;27;20129;-90
2022/09/26 05:44:35;;;;;;;12.02;3.35;;;;;;;8.90;100.00;100204.59;5156929;27;20022;-90
2022/09/26 05:47:01;;;;;;;9.27;3.63;;;;;;;8.93;100.00;100204.16;5137534;27;20028;-90
2022/09/26 05:49:26;;;;;;;9.30;3.35;;;;;;;8.99;100.00;100202.44;5137611;27;20280;-90
2022/09/26 05:51:58;;;;;;;7.17;3.17;;;;;;;8.98;100.00;100199.97;5136736;27;20496;-90
2022/09/26 05:54:31;;;;;;;9.57;3.70;;;;;;;9.00;100.00;100195.97;5121451;27;20031;-90
2022/09/26 05:57:02;;;;;;;17.45;3.88;;;;;;;9.00;100.00;100192.44;5138282;27;20041;-91
2022/09/26 05:59:30;;;;;;;8.50;3.13;;;;;;;8.97;100.00;100195.59;5116920;27;20142;-90
2022/09/26 06:02:03;;;;;;;10.98;3.63;;;;;;;8.92;100.00;100191.66;5135169;27;20031;-91
2022/09/26 06:04:50;;;;;;;13.67;3.40;;;;;;;8.91;100.00;100192.69;5134246;27;20031;-91
2022/09/26 06:07:21;;;;;;;10.63;3.13;;;;;;;8.95;100.00;100179.56;5134593;27;20019;-91
2022/09/26 06:09:46;;;;;;;11.50;3.00;;;;;;;9.02;100.00;100171.38;5116854;27;20031;-91
2022/09/26 06:12:21;;;;;;;8.63;3.37;;;;;;;8.97;100.00;100161.22;5133782;27;20088;-90
2022/09/26 06:14:52;;;;;;;9.63;3.00;;;;;;;8.97;100.00;100150.41;5134120;27;20027;-90
2022/09/26 06:17:25;;;;;;;11.32;3.63;;;;;;;8.97;100.00;100152.28;5133554;27;20030;-89
2022/09/26 06:19:56;;;;;;;8.43;2.80;;;;;;;8.99;100.00;100131.25;5133300;27;20022;-90
2022/09/26 06:22:29;;;;;;;11.65;3.13;;;;;;;9.08;100.00;100140.72;5134215;27;20038;-89
2022/09/26 06:24:54;;;;;;;6.87;2.70;;;;;;;9.05;100.00;100122.22;5133047;27;20502;-89
2022/09/26 06:27:29;;;;;;;6.25;2.55;;;;;;;9.08;100.00;100119.06;5133248;27;20035;-89
2022/09/26 06:29:56;;;;;;;6.17;2.80;;;;;;;9.08;100.00;100106.38;5134652;27;20030;-90
2022/09/26 06:32:25;;;;;;;6.97;2.63;;;;;;;9.11;100.00;100099.72;5132554;28;20015;-90
2022/09/26 06:34:53;;;;;;;9.10;2.75;;;;;;;9.18;100.00;100092.31;5133360;28;20030;-89
2022/09/26 06:37:57;;;;;;;8.73;2.13;;;;;;;9.28;100.00;100092.63;5116270;28;20023;-90
2022/09/26 06:40:31;;;;;;;10.32;2.22;;;;;;;9.23;100.00;100102.50;5134126;27;20035;-90
2022/09/26 06:43:03;;;;;;;8.23;2.20;;;;;;;9.33;100.00;100085.72;5134849;28;20027;-90
2022/09/26 06:45:28;;;;;;;4.05;1.80;;;;;;;9.33;100.00;100066.78;5117111;28;20035;-91
2022/09/26 06:47:54;;;;;;;8.05;2.03;;;;;;;9.37;100.00;100076.09;5134155;28;20054;-91
2022/09/26 06:50:23;;;;;;;7.60;2.30;;;;;;;9.40;100.00;100062.09;5134738;27;20111;-91
2022/09/26 06:52:49;;;;;;;6.53;2.30;;;;;;;9.38;100.00;100061.50;5115969;28;20130;-90
2022/09/26 06:55:17;;;;;;;5.60;1.90;;;;;;;9.40;100.00;100051.28;5133519;28;20121;-90
2022/09/26 06:57:43;;;;;;;3.58;1.92;;;;;;;9.40;100.00;100035.03;5134040;27;20118;-90
2022/09/26 07:00:22;;;;;;;5.30;1.98;;;;;;;9.40;100.00;100037.75;5136418;27;20114;-91
2022/09/26 07:02:55;;;;;;;6.07;2.10;;;;;;;9.48;100.00;100040.97;5137602;27;20354;-90
2022/09/26 07:05:29;;;;;;;3.92;2.20;;;;;;;9.59;100.00;100027.72;5136227;27;20432;-91
2022/09/26 07:08:03;;;;;;;4.63;1.88;;;;;;;9.73;100.00;100025.63;5136254;27;20031;-90
2022/09/26 07:10:29;;;;;;;6.10;1.80;;;;;;;9.80;100.00;100023.66;5120510;27;20443;-88
2022/09/26 07:13:13;;;;;;;5.47;2.00;;;;;;;9.88;100.00;100022.53;5119549;27;20082;-89
2022/09/26 07:15:39;;;;;;;3.97;1.55;;;;;;;9.90;100.00;100007.66;5154855;27;20394;-89
2022/09/26 07:18:16;;;;;;;3.65;1.60;;;;;;;9.93;100.00;100004.50;5136409;27;20075;-90
2022/09/26 07:20:46;;;;;;;2.73;1.30;;;;;;;10.01;99.49;99998.75;5155041;27;20027;-89
2022/09/26 07:23:21;;;;;;;8.20;2.10;;;;;;;10.04;99.63;99994.75;5136978;27;20087;-89
2022/09/26 07:25:51;;;;;;;6.38;2.00;;;;;;;10.06;99.96;99994.53;5120788;27;20038;-89
2022/09/26 07:28:17;;;;;;;5.03;1.75;;;;;;;10.09;99.22;99991.34;5139231;27;20046;-89
2022/09/26 07:30:47;;;;;;;4.37;1.77;;;;;;;10.16;99.12;99998.31;5140394;27;20454;-88
2022/09/26 07:33:13;;;;;;;4.65;1.50;;;;;;;10.30;97.33;99998.91;5158340;27;20022;-89
2022/09/26 07:35:45;;;;;;;4.67;1.83;;;;;;;10.41;97.23;99996.47;5139887;27;20034;-89
2022/09/26 07:38:12;;;;;;;3.38;1.67;;;;;;;10.50;96.68;99989.66;5139787;27;20029;-89
2022/09/26 07:40:38;;;;;;;6.38;1.50;;;;;;;10.57;95.65;99993.06;5139990;27;20054;-89
2022/09/26 07:43:04;;;;;;;5.72;1.73;;;;;;;10.59;96.38;99990.94;5139781;27;20033;-89
2022/09/26 07:51:00;;;;;;;5.25;1.58;;;;;;;10.69;95.09;99980.31;5158911;27;20049;-89
2022/09/26 07:53:26;;;;;;;8.17;1.83;;;;;;;10.71;95.53;99972.75;5158084;27;20450;-90
2022/09/26 07:56:04;;;;;;;5.05;1.65;;;;;;;10.80;94.74;99969.69;5139311;27;20054;-89
2022/09/26 07:58:35;;;;;;;4.30;1.48;;;;;;;10.85;94.37;99981.47;5139156;27;20046;-89
2022/09/26 08:01:03;;;;;;;6.60;1.70;;;;;;;10.91;94.78;99978.88;5139721;27;20371;-89
2022/09/26 08:03:37;;;;;;;5.55;1.58;;;;;;;11.00;93.93;99972.03;5139009;27;20109;-89
2022/09/26 08:06:03;;;;;;;6.70;2.13;;;;;;;11.06;93.94;99968.34;5139780;27;20041;-90
2022/09/26 08:08:30;;;;;;;7.72;2.03;;;;;;;11.08;93.84;99968.09;5139576;27;20026;-89
2022/09/26 08:10:57;;;;;;;5.20;1.75;;;;;;;11.09;93.79;99948.00;5139011;27;20045;-90
2022/09/26 08:13:29;;;;;;;4.55;1.52;;;;;;;11.08;93.69;99944.47;5139239;27;20027;-89
2022/09/26 08:16:02;;;;;;;5.10;1.25;;;;;;;11.08;93.29;99949.91;5123057;27;20042;-89
2022/09/26 08:18:28;;;;;;;3.57;1.60;;;;;;;11.09;93.44;99948.84;5139162;27;20030;-90
2022/09/26 08:20:57;;;;;;;5.68;1.48;;;;;;;11.11;93.31;99954.84;5157435;27;20038;-90
2022/09/26 08:23:23;;;;;;;4.55;1.40;;;;;;;11.05;93.71;99948.50;5157360;27;20031;-90
2022/09/26 08:25:48;;;;;;;5.07;1.67;;;;;;;11.02;94.10;99945.44;5121365;27;20043;-90
2022/09/26 08:28:27;;;;;;;3.77;1.43;;;;;;;11.05;94.12;99944.97;5138974;27;20030;-90
2022/09/26 08:31:03;;;;;;;7.70;1.60;;;;;;;11.02;94.28;99940.03;5123729;27;20027;-89
2022/09/26 08:33:36;;;;;;;5.93;1.65;;;;;;;11.00;94.49;99942.97;5139764;27;20068;-90
2022/09/26 08:36:16;;;;;;;3.72;1.60;;;;;;;11.05;94.57;99940.34;5138869;27;20091;-90
2022/09/26 08:38:50;;;;;;;4.40;1.60;;;;;;;11.10;94.10;99945.09;5139420;27;20022;-89
2022/09/26 08:44:39;;;;;;;6.32;1.80;;;;;;;11.27;93.02;99939.69;5127148;27;20050;-89
2022/09/26 08:47:33;;;;;;;4.30;2.00;;;;;;;11.23;93.51;99923.09;5138368;27;20035;-90
2022/09/26 08:50:24;;;;;;;6.18;1.80;;;;;;;11.36;93.27;99929.28;5103007;27;20034;-90
2022/09/26 08:53:04;;;;;;;7.47;1.85;;;;;;;11.33;93.03;99925.16;5138713;27;20114;-89
2022/09/26 08:55:38;;;;;;;3.63;1.37;;;;;;;11.38;93.17;99911.69;5138579;27;20027;-89
2022/09/26 08:58:25;;;;;;;6.15;2.03;;;;;;;11.40;93.11;99920.38;5138281;27;20131;-90
2022/09/26 09:00:56;;;;;;;4.53;1.65;;;;;;;11.44;92.92;99911.75;5139858;27;20090;-90
2022/09/26 09:03:34;;;;;;;6.70;1.55;;;;;;;11.36;93.02;99916.50;5156882;27;20031;-89
2022/09/26 09:06:06;;;;;;;4.95;1.75;;;;;;;11.35;93.61;99912.16;5135732;27;20089;-89
2022/09/26 09:08:43;;;;;;;3.53;1.87;;;;;;;11.36;95.24;99911.06;5137930;27;20454;-90
2022/09/26 09:11:20;;;;;;;7.60;1.80;;;;;;;11.36;95.75;99911.06;5138583;27;20018;-89
2022/09/26 09:14:20;;;;;;;10.18;2.22;;;;;;;11.30;96.66;99903.91;5138329;27;20533;-90
2022/09/26 09:16:52;;;;;;;7.57;2.20;;;;;;;11.29;99.39;99910.41;5138921;27;20030;-90
2022/09/26 09:19:23;;;;;;;2.97;1.83;;;;;;;11.30;99.89;99900.38;5137815;27;20039;-91
2022/09/26 09:22:21;;;;;;;6.13;1.87;;;;;;;11.07;100.00;99891.25;5137718;27;20069;-90
2022/09/26 09:25:09;;;;;;;5.60;1.67;;;;;;;10.91;100.00;99897.44;5156180;27;20046;-90
2022/09/26 09:27:47;;;;;;;7.90;2.30;;;;;;;10.74;100.00;99886.53;5156740;27;20034;-91
2022/09/26 09:30:40;;;;;;;6.10;2.83;;;;;;;10.57;100.00;99873.72;5138368;27;20091;-90
2022/09/26 09:33:20;;;;;;;6.07;2.13;;;;;;;10.53;100.00;99873.34;5136684;27;20046;-89
2022/09/26 09:35:54;;;;;;;6.10;2.20;;;;;;;10.43;100.00;99865.00;5137884;27;20023;-88
2022/09/26 09:38:29;;;;;;;13.35;2.63;;;;;;;10.51;100.00;99874.66;5137270;27;20033;-87
2022/09/26 09:41:11;;;;;;;7.53;2.80;;;;;;;10.50;100.00;99864.88;5156717;27;20034;-88
2022/09/26 09:43:42;;;;;;;9.98;3.03;;;;;;;10.47;100.00;99860.75;5137657;27;20026;-87
2022/09/26 09:46:21;;;;;;;7.72;2.65;;;;;;;10.42;100.00;99841.66;5138159;27;20141;-87
2022/09/26 09:48:47;;;;;;;8.43;3.03;;;;;;;10.45;100.00;99843.91;5137740;27;20538;-87
2022/09/26 09:51:30;;;;;;;6.10;3.15;;;;;;;10.56;100.00;99836.00;5136440;27;20106;-88
2022/09/26 09:54:22;;;;;;;7.22;2.53;;;;;;;10.57;100.00;99837.63;5137251;27;20019;-88
2022/09/26 09:57:01;;;;;;;8.68;3.38;;;;;;;10.52;100.00;99832.91;5137520;27;20489;-87
2022/09/26 09:59:39;;;;;;;11.45;3.10;;;;;;;10.53;100.00;99826.44;5136770;27;20474;-87
2022/09/26 10:02:32;;;;;;;7.40;3.43;;;;;;;10.61;100.00;99826.03;5137301;27;20042;-87
2022/09/26 10:05:14;;;;;;;11.75;3.47;;;;;;;10.65;100.00;99812.84;5137763;27;20018;-87
2022/09/26 10:07:48;;;;;;;5.45;2.55;;;;;;;10.71;100.00;99806.44;5136485;27;20066;-87
2022/09/26 10:10:36;;;;;;;11.75;4.03;;;;;;;10.70;100.00;99800.22;5136940;27;20027;-87
2022/09/26 10:13:05;;;;;;;12.57;3.53;;;;;;;10.77;100.00;99793.81;5136993;27;20109;-87
2022/09/26 10:15:33;;;;;;;10.57;3.60;;;;;;;10.78;100.00;99809.84;5137034;27;20118;-87
2022/09/26 10:17:59;;;;;;;7.65;2.97;;;;;;;10.83;100.00;99782.78;5136425;27;20496;-88
2022/09/26 10:20:39;;;;;;;6.75;3.13;;;;;;;10.86;100.00;99803.19;5136569;27;20122;-87
2022/09/26 10:23:30;;;;;;;8.15;3.58;;;;;;;10.75;100.00;99782.34;5137043;27;20029;-87
2022/09/26 10:26:09;;;;;;;5.68;2.88;;;;;;;10.73;100.00;99788.03;5137474;27;20044;-87
2022/09/26 10:28:59;;;;;;;15.27;3.50;;;;;;;10.66;100.00;99777.34;5136607;27;20027;-87
2022/09/26 10:31:37;;;;;;;9.48;4.13;;;;;;;10.66;100.00;99780.03;5136728;27;20034;-87
2022/09/26 10:34:06;;;;;;;13.05;4.55;;;;;;;10.64;100.00;99775.91;5137412;27;20480;-86
2022/09/26 10:36:33;;;;;;;8.90;4.38;;;;;;;10.65;100.00;99778.38;5136507;27;20026;-86
2022/09/26 10:41:52;;;;;;;9.33;3.60;;;;;;;10.64;100.00;99789.47;5155321;27;20083;-86
2022/09/26 10:44:33;;;;;;;7.82;3.63;;;;;;;10.56;100.00;99762.75;5137556;27;20022;-87
2022/09/26 10:47:07;;;;;;;7.80;3.80;;;;;;;10.56;100.00;99765.47;5137451;27;20061;-89
2022/09/26 10:49:59;;;;;;;9.38;3.60;;;;;;;10.56;100.00;99760.88;5137607;27;20038;-89
2022/09/26 10:52:53;;;;;;;10.90;4.28;;;;;;;10.63;100.00;99761.53;5125394;27;20081;-89
2022/09/26 10:55:28;;;;;;;8.70;4.50;;;;;;;10.60;100.00;99764.75;5137413;27;20058;-89
2022/09/26 10:57:57;;;;;;;12.93;4.50;;;;;;;10.65;100.00;99758.59;5136444;27;20030;-89
2022/09/26 11:00:42;;;;;;;10.80;4.55;;;;;;;10.65;100.00;99761.31;5154808;27;20105;-89
2022/09/26 11:03:20;;;;;;;11.30;4.78;;;;;;;10.65;100.00;99748.56;5140444;27;20145;-89
2022/09/26 11:05:58;;;;;;;7.40;3.90;;;;;;;10.69;100.00;99749.72;5141663;27;20035;-90
2022/09/26 11:08:27;;;;;;;11.87;4.90;;;;;;;10.64;100.00;99748.78;5140725;27;20030;-89
2022/09/26 11:11:06;;;;;;;11.90;4.10;;;;;;;10.67;100.00;99751.84;5140567;27;20076;-89
2022/09/26 11:14:07;;;;;;;8.55;4.60;;;;;;;10.68;100.00;99748.06;5140546;27;20026;-89
2022/09/26 11:16:54;;;;;;;9.85;4.47;;;;;;;10.70;100.00;99739.69;5140174;27;20489;-89
2022/09/26 11:19:41;;;;;;;6.18;4.13;;;;;;;10.64;100.00;99721.66;5140680;27;20374;-88
2022/09/26 11:22:10;;;;;;;11.67;4.43;;;;;;;10.63;100.00;99730.88;5140551;27;20045;-88
2022/09/26 11:24:58;;;;;;;10.05;3.80;;;;;;;10.57;100.00;99737.25;5140455;27;20458;-88
2022/09/26 11:27:42;;;;;;;8.05;3.90;;;;;;;10.55;100.00;99725.84;5139727;27;20023;-89
2022/09/26 11:30:21;;;;;;;10.30;4.82;;;;;;;10.51;100.00;99725.50;5140490;27;20037;-89
2022/09/26 11:32:59;;;;;;;10.90;5.05;;;;;;;10.44;100.00;99717.50;5138584;27;20470;-89
2022/09/26 11:35:28;;;;;;;9.07;4.43;;;;;;;10.48;100.00;99724.09;5140452;27;20113;-89
2022/09/26 11:38:04;;;;;;;13.10;5.30;;;;;;;10.51;100.00;99722.78;5140032;27;20037;-89
2022/09/26 11:40:56;;;;;;;9.40;4.05;;;;;;;10.46;100.00;99715.38;5141710;27;20427;-89
2022/09/26 11:43:33;;;;;;;11.32;4.50;;;;;;;10.47;100.00;99718.94;5139835;27;20055;-88
2022/09/26 11:46:19;;;;;;;11.73;5.10;;;;;;;10.50;100.00;99708.41;5158394;27;20180;-88
2022/09/26 11:48:58;;;;;;;13.47;6.03;;;;;;;10.55;100.00;99712.28;5140625;27;20423;-88
2022/09/26 11:51:50;;;;;;;11.40;4.53;;;;;;;10.49;100.00;99706.75;5140059;27;20026;-87
2022/09/26 11:54:37;;;;;;;8.52;4.63;;;;;;;10.50;100.00;99716.53;5139247;27;20026;-88
2022/09/26 11:57:36;;;;;;;8.90;4.63;;;;;;;10.66;100.00;99700.56;5139275;27;20550;-87
2022/09/26 12:00:25;;;;;;;11.40;4.88;;;;;;;10.58;100.00;99703.66;5138842;27;20069;-87
2022/09/26 12:03:05;;;;;;;6.67;4.13;;;;;;;10.55;100.00;99718.53;5158330;27;20053;-87
2022/09/26 12:05:49;;;;;;;6.65;4.03;;;;;;;10.49;100.00;99695.91;5139343;27;20027;-87
2022/09/26 12:08:29;;;;;;;8.10;4.15;;;;;;;10.57;100.00;99702.84;5157698;27;20034;-87
2022/09/26 12:11:08;;;;;;;6.70;4.20;;;;;;;10.55;100.00;99696.00;5139471;27;20465;-87
2022/09/26 12:13:51;;;;;;;7.03;3.90;;;;;;;10.56;100.00;99697.66;5157819;27;20019;-87
2022/09/26 12:16:37;;;;;;;9.40;4.17;;;;;;;10.52;100.00;99698.13;5139232;27;20039;-86
2022/09/26 12:19:12;;;;;;;7.55;3.85;;;;;;;10.50;100.00;99684.00;5140202;27;20167;-87
2022/09/26 12:25:07;;;;;;;7.35;3.97;;;;;;;10.48;100.00;99688.84;5157767;27;20026;-87
2022/09/26 12:28:25;;;;;;;7.63;3.28;;;;;;;10.48;100.00;99686.16;5157582;27;20031;-87
2022/09/26 12:31:09;;;;;;;6.97;3.00;;;;;;;10.49;100.00;99684.25;5072903;28;20032;-87
2022/09/26 12:33:56;;;;;;;7.60;4.03;;;;;;;10.51;100.00;99682.94;5072890;28;20127;-88
2022/09/26 12:36:46;;;;;;;6.60;3.45;;;;;;;10.50;100.00;99667.72;5136572;27;20042;-87
2022/09/26 12:39:26;;;;;;;7.70;3.72;;;;;;;10.49;100.00;99700.50;5157280;27;20034;-87
2022/09/26 12:42:06;;;;;;;5.00;2.92;;;;;;;10.50;100.00;99666.91;5138570;27;20049;-87
2022/09/26 12:45:11;;;;;;;5.10;3.67;;;;;;;10.51;100.00;99661.25;5138798;27;20027;-87